Terminal Aerodrome Forecast
Issued by NWS Memphis, TN

Home | Current Version | Previous Version | Text Only | Print | Product List | Glossary On
Versions: 1 2 3 4 5 6 7 8 9 10 11 12 13 14 15 16 17 18 19 20 21 22 23 24 25 26 27 28 29 30 31 32 33 34 35 36
940
FTUS44 KMEG 291902 AAA
TAFMEM
TAF AMD
KMEM 291902Z 2919/3018 22008KT P6SM SCT025 BKN035
      TEMPO 2919/2920 BKN025
     FM292100 21007KT P6SM VCTS SCT035CB BKN050
      TEMPO 2922/2924 VRB10G20KT 4SM -TSRA BKN035CB
     FM300100 20005KT P6SM SCT060 BKN250
     FM300900 20005KT P6SM VCTS FEW040CB OVC150
     FM301400 24006KT P6SM BKN200=

USA.gov is the U.S. government's official web portal to all federal, state and local government web resources and services.